Aviation Digital Data Service (ADDS)

Output produced by METARs form (1849 UTC 26 March 2017)
found at http://aviationweather.gov/adds/metars/
 
KBHB 261734Z 2618/2718 00000KT P6SM FEW250 
     FM270900 12006KT P6SM OVC035 
     FM271200 13009KT 5SM -SNPL OVC050 
     FM271400 13011KT 2SM -SNPL OVC035 
     FM271600 13012G19KT 2SM -RAPL OVC025